VLG7PV LEBL-LECO
Flight info
| Callsign | VLG7PV |
|---|---|
| Flight time | 1h 22m |
| Altitude | 31000 |
| Route | LOBAR N725 DIRMU/N0435F330 N725 SUSOS/N0370F230 N725 LOMDA |
| Aircraft | A320/M-SDFGHILORVWXY/LB1 |
Departure
| Time | 2026-05-08 07:13 |
|---|---|
| Airport | Josep Tarradellas Barcelona-El Prat Airport (LEBL) |
Arrival
| Time | 2026-05-08 08:35 |
|---|---|
| Airport | A Coruña Airport (LECO) |
| Time | Latitude | Longitude | Altitude | Speed | Heading |
|---|---|---|---|---|---|
| 2026-05-08 06:39 | 41.29150 | 2.07945 | 19 ft | 0 kts | 155° |
| 2026-05-08 07:03 | 41.29157 | 2.07941 | 19 ft | 3 kts | 154° |
| 2026-05-08 07:03 | 41.29176 | 2.07927 | 23 ft | 3 kts | 127° |
| 2026-05-08 07:04 | 41.29181 | 2.07909 | 20 ft | 1 kts | 65° |
| 2026-05-08 07:04 | 41.29180 | 2.07908 | 20 ft | 0 kts | 65° |
| 2026-05-08 07:06 | 41.29181 | 2.07911 | 19 ft | 1 kts | 65° |
| 2026-05-08 07:06 | 41.29210 | 2.07943 | 20 ft | 9 kts | 37° |
| 2026-05-08 07:06 | 41.29257 | 2.08000 | 19 ft | 10 kts | 56° |
| 2026-05-08 07:06 | 41.29291 | 2.08094 | 19 ft | 13 kts | 65° |
| 2026-05-08 07:07 | 41.29331 | 2.08212 | 19 ft | 15 kts | 65° |
| 2026-05-08 07:07 | 41.29361 | 2.08301 | 19 ft | 11 kts | 66° |
| 2026-05-08 07:07 | 41.29340 | 2.08394 | 20 ft | 13 kts | 151° |
| 2026-05-08 07:07 | 41.29256 | 2.08446 | 21 ft | 14 kts | 155° |
| 2026-05-08 07:08 | 41.29162 | 2.08502 | 19 ft | 8 kts | 155° |
| 2026-05-08 07:08 | 41.29090 | 2.08546 | 16 ft | 15 kts | 155° |
| 2026-05-08 07:08 | 41.28989 | 2.08606 | 19 ft | 17 kts | 156° |
| 2026-05-08 07:08 | 41.28899 | 2.08660 | 16 ft | 11 kts | 155° |
| 2026-05-08 07:09 | 41.28870 | 2.08752 | 17 ft | 14 kts | 68° |
| 2026-05-08 07:09 | 41.28918 | 2.08893 | 17 ft | 19 kts | 65° |
| 2026-05-08 07:09 | 41.28981 | 2.09076 | 18 ft | 24 kts | 65° |
| 2026-05-08 07:09 | 41.29037 | 2.09239 | 18 ft | 21 kts | 66° |
| 2026-05-08 07:10 | 41.29102 | 2.09433 | 17 ft | 19 kts | 64° |
| 2026-05-08 07:10 | 41.29154 | 2.09578 | 18 ft | 20 kts | 65° |
| 2026-05-08 07:10 | 41.29205 | 2.09729 | 19 ft | 17 kts | 66° |
| 2026-05-08 07:10 | 41.29261 | 2.09889 | 17 ft | 12 kts | 65° |
| 2026-05-08 07:11 | 41.29311 | 2.10005 | 19 ft | 17 kts | 64° |
| 2026-05-08 07:11 | 41.29309 | 2.10135 | 15 ft | 10 kts | 109° |
| 2026-05-08 07:11 | 41.29278 | 2.10253 | 14 ft | 16 kts | 110° |
| 2026-05-08 07:11 | 41.29227 | 2.10305 | 15 ft | 8 kts | 197° |
| 2026-05-08 07:12 | 41.29202 | 2.10272 | 16 ft | 0 kts | 245° |
| 2026-05-08 07:12 | 41.29105 | 2.09991 | 19 ft | 79 kts | 246° |
| 2026-05-08 07:12 | 41.28767 | 2.09009 | 20 ft | 150 kts | 245° |
| 2026-05-08 07:13 | 41.28305 | 2.07666 | 673 ft | 158 kts | 242° |
| 2026-05-08 07:13 | 41.27530 | 2.06617 | 1528 ft | 168 kts | 207° |
| 2026-05-08 07:13 | 41.26340 | 2.06175 | 2118 ft | 189 kts | 191° |
| 2026-05-08 07:13 | 41.24994 | 2.05789 | 2746 ft | 206 kts | 191° |
| 2026-05-08 07:14 | 41.23530 | 2.05361 | 3541 ft | 220 kts | 192° |
| 2026-05-08 07:14 | 41.22323 | 2.04988 | 4457 ft | 221 kts | 192° |
| 2026-05-08 07:14 | 41.20813 | 2.04505 | 5600 ft | 225 kts | 192° |
| 2026-05-08 07:14 | 41.19287 | 2.04010 | 6734 ft | 227 kts | 195° |
| 2026-05-08 07:15 | 41.17928 | 2.02861 | 7594 ft | 245 kts | 225° |
| 2026-05-08 07:15 | 41.16880 | 2.01059 | 8719 ft | 247 kts | 233° |
| 2026-05-08 07:15 | 41.15891 | 1.99195 | 9964 ft | 247 kts | 234° |
| 2026-05-08 07:15 | 41.14879 | 1.97312 | 10963 ft | 253 kts | 233° |
| 2026-05-08 07:16 | 41.13836 | 1.95402 | 11989 ft | 258 kts | 237° |
| 2026-05-08 07:16 | 41.13057 | 1.93223 | 12907 ft | 269 kts | 252° |
| 2026-05-08 07:16 | 41.12517 | 1.90805 | 13821 ft | 277 kts | 253° |
| 2026-05-08 07:16 | 41.11962 | 1.88337 | 14724 ft | 281 kts | 254° |
| 2026-05-08 07:17 | 41.11659 | 1.85766 | 15659 ft | 285 kts | 269° |
| 2026-05-08 07:17 | 41.11864 | 1.83117 | 16350 ft | 300 kts | 283° |
| 2026-05-08 07:17 | 41.12591 | 1.80400 | 16679 ft | 325 kts | 291° |
| 2026-05-08 07:17 | 41.13630 | 1.77626 | 16967 ft | 349 kts | 303° |
| 2026-05-08 07:18 | 41.15280 | 1.75177 | 17555 ft | 363 kts | 318° |
| 2026-05-08 07:18 | 41.17407 | 1.73322 | 18325 ft | 370 kts | 329° |
| 2026-05-08 07:18 | 41.19640 | 1.71662 | 19056 ft | 374 kts | 328° |
| 2026-05-08 07:18 | 41.21789 | 1.69721 | 19808 ft | 375 kts | 318° |
| 2026-05-08 07:19 | 41.23736 | 1.67392 | 20614 ft | 378 kts | 315° |
| 2026-05-08 07:19 | 41.25687 | 1.65038 | 21375 ft | 381 kts | 315° |
| 2026-05-08 07:19 | 41.27662 | 1.62670 | 22121 ft | 384 kts | 315° |
| 2026-05-08 07:19 | 41.29654 | 1.60287 | 22863 ft | 387 kts | 315° |
| 2026-05-08 07:20 | 41.31659 | 1.57887 | 23575 ft | 390 kts | 315° |
| 2026-05-08 07:20 | 41.33684 | 1.55461 | 24182 ft | 393 kts | 315° |
| 2026-05-08 07:20 | 41.35726 | 1.53026 | 24755 ft | 396 kts | 315° |
| 2026-05-08 07:20 | 41.37813 | 1.50600 | 25338 ft | 400 kts | 315° |
| 2026-05-08 07:21 | 41.39929 | 1.48177 | 25922 ft | 403 kts | 316° |
| 2026-05-08 07:21 | 41.42070 | 1.45740 | 26501 ft | 406 kts | 315° |
| 2026-05-08 07:21 | 41.44227 | 1.43283 | 27061 ft | 409 kts | 315° |
| 2026-05-08 07:21 | 41.46394 | 1.40799 | 27617 ft | 412 kts | 314° |
| 2026-05-08 07:22 | 41.48359 | 1.38032 | 28156 ft | 411 kts | 304° |
| 2026-05-08 07:22 | 41.49880 | 1.34883 | 28707 ft | 410 kts | 294° |
| 2026-05-08 07:22 | 41.50962 | 1.31378 | 29261 ft | 409 kts | 284° |
| 2026-05-08 07:22 | 41.51555 | 1.27670 | 29813 ft | 410 kts | 275° |
| 2026-05-08 07:23 | 41.51800 | 1.23874 | 30317 ft | 412 kts | 273° |
| 2026-05-08 07:23 | 41.52033 | 1.20050 | 30848 ft | 413 kts | 272° |
| 2026-05-08 07:23 | 41.52267 | 1.16251 | 31569 ft | 409 kts | 272° |
| 2026-05-08 07:23 | 41.52499 | 1.12479 | 32333 ft | 406 kts | 272° |
| 2026-05-08 07:24 | 41.52727 | 1.08737 | 32833 ft | 404 kts | 272° |
| 2026-05-08 07:24 | 41.52955 | 1.05005 | 32983 ft | 402 kts | 272° |
| 2026-05-08 07:24 | 41.53397 | 0.97646 | 33013 ft | 396 kts | 272° |
| 2026-05-08 07:25 | 41.53827 | 0.90336 | 33014 ft | 395 kts | 271° |
| 2026-05-08 07:26 | 41.54459 | 0.79350 | 33011 ft | 396 kts | 271° |
| 2026-05-08 07:26 | 41.54879 | 0.72006 | 33007 ft | 397 kts | 271° |
| 2026-05-08 07:27 | 41.56032 | 0.64830 | 33008 ft | 405 kts | 288° |
| 2026-05-08 07:27 | 41.59096 | 0.58421 | 33004 ft | 415 kts | 303° |
| 2026-05-08 07:28 | 41.62693 | 0.52373 | 33006 ft | 416 kts | 303° |
| 2026-05-08 07:28 | 41.66279 | 0.46296 | 33006 ft | 416 kts | 303° |
| 2026-05-08 07:29 | 41.69871 | 0.40214 | 33007 ft | 417 kts | 303° |
| 2026-05-08 07:29 | 41.73441 | 0.34091 | 33014 ft | 415 kts | 299° |
| 2026-05-08 07:30 | 41.75900 | 0.27246 | 33014 ft | 405 kts | 283° |
| 2026-05-08 07:30 | 41.77597 | 0.20043 | 33012 ft | 406 kts | 283° |
| 2026-05-08 07:31 | 41.79295 | 0.12829 | 33008 ft | 406 kts | 283° |
| 2026-05-08 07:31 | 41.80989 | 0.05603 | 33008 ft | 407 kts | 283° |
| 2026-05-08 07:32 | 41.82675 | -0.01588 | 33008 ft | 407 kts | 283° |
| 2026-05-08 07:32 | 41.84374 | -0.08893 | 33004 ft | 408 kts | 283° |
| 2026-05-08 07:33 | 41.86043 | -0.16111 | 33003 ft | 408 kts | 283° |
| 2026-05-08 07:33 | 41.87723 | -0.23395 | 33003 ft | 409 kts | 283° |
| 2026-05-08 07:34 | 41.89402 | -0.30686 | 33003 ft | 409 kts | 283° |
| 2026-05-08 07:34 | 41.91085 | -0.37987 | 33001 ft | 410 kts | 283° |
| 2026-05-08 07:35 | 41.92767 | -0.45305 | 32998 ft | 410 kts | 283° |
| 2026-05-08 07:35 | 41.94447 | -0.52628 | 32995 ft | 411 kts | 283° |
| 2026-05-08 07:36 | 41.96119 | -0.59969 | 32995 ft | 411 kts | 283° |
| 2026-05-08 07:36 | 41.97792 | -0.67329 | 32993 ft | 412 kts | 283° |
| 2026-05-08 07:37 | 41.99466 | -0.74704 | 32993 ft | 413 kts | 283° |
| 2026-05-08 07:37 | 42.01135 | -0.82099 | 32978 ft | 413 kts | 282° |
| 2026-05-08 07:38 | 42.02789 | -0.89455 | 32982 ft | 414 kts | 282° |
| 2026-05-08 07:38 | 42.04448 | -0.96869 | 32981 ft | 414 kts | 282° |
| 2026-05-08 07:39 | 42.06102 | -1.04300 | 32977 ft | 415 kts | 282° |
| 2026-05-08 07:39 | 42.07755 | -1.11751 | 32991 ft | 416 kts | 282° |
| 2026-05-08 07:40 | 42.09412 | -1.19214 | 32992 ft | 416 kts | 282° |
| 2026-05-08 07:40 | 42.11070 | -1.26696 | 32979 ft | 417 kts | 282° |
| 2026-05-08 07:41 | 42.12720 | -1.34193 | 32986 ft | 418 kts | 282° |
| 2026-05-08 07:41 | 42.14087 | -1.40431 | 32986 ft | 418 kts | 282° |
| 2026-05-08 07:42 | 42.15732 | -1.47949 | 32986 ft | 419 kts | 282° |
| 2026-05-08 07:42 | 42.17374 | -1.55489 | 32986 ft | 419 kts | 282° |
| 2026-05-08 07:43 | 42.19015 | -1.63041 | 32988 ft | 420 kts | 282° |
| 2026-05-08 07:43 | 42.20657 | -1.70608 | 32982 ft | 421 kts | 282° |
| 2026-05-08 07:44 | 42.22288 | -1.78188 | 32977 ft | 421 kts | 282° |
| 2026-05-08 07:44 | 42.23920 | -1.85787 | 32980 ft | 422 kts | 282° |
| 2026-05-08 07:45 | 42.25539 | -1.93340 | 32975 ft | 422 kts | 281° |
| 2026-05-08 07:45 | 42.27165 | -2.00957 | 32972 ft | 423 kts | 282° |
| 2026-05-08 07:46 | 42.28789 | -2.08593 | 32978 ft | 423 kts | 281° |
| 2026-05-08 07:46 | 42.30412 | -2.16243 | 32976 ft | 424 kts | 281° |
| 2026-05-08 07:47 | 42.32025 | -2.23901 | 32974 ft | 424 kts | 281° |
| 2026-05-08 07:47 | 42.33639 | -2.31574 | 32975 ft | 425 kts | 281° |
| 2026-05-08 07:48 | 42.35242 | -2.39254 | 32969 ft | 425 kts | 281° |
| 2026-05-08 07:48 | 42.36840 | -2.46942 | 32967 ft | 425 kts | 281° |
| 2026-05-08 07:49 | 42.38442 | -2.54647 | 32952 ft | 426 kts | 281° |
| 2026-05-08 07:49 | 42.40043 | -2.62369 | 32957 ft | 427 kts | 281° |
| 2026-05-08 07:50 | 42.41648 | -2.70098 | 32956 ft | 427 kts | 281° |
| 2026-05-08 07:50 | 42.43249 | -2.77852 | 32947 ft | 428 kts | 281° |
| 2026-05-08 07:51 | 42.44822 | -2.85563 | 32947 ft | 428 kts | 281° |
| 2026-05-08 07:51 | 42.45928 | -2.93434 | 32946 ft | 425 kts | 274° |
| 2026-05-08 07:52 | 42.46791 | -3.01367 | 32952 ft | 426 kts | 274° |
| 2026-05-08 07:52 | 42.47659 | -3.09313 | 32959 ft | 427 kts | 274° |
| 2026-05-08 07:53 | 42.48522 | -3.17278 | 32957 ft | 428 kts | 274° |
| 2026-05-08 07:53 | 42.49372 | -3.25205 | 32953 ft | 428 kts | 274° |
| 2026-05-08 07:54 | 42.50225 | -3.33244 | 32953 ft | 428 kts | 274° |
| 2026-05-08 07:54 | 42.51071 | -3.41188 | 32949 ft | 429 kts | 274° |
| 2026-05-08 07:55 | 42.51924 | -3.49201 | 32948 ft | 430 kts | 274° |
| 2026-05-08 07:55 | 42.52767 | -3.57237 | 32949 ft | 431 kts | 273° |
| 2026-05-08 07:56 | 42.53599 | -3.65281 | 32950 ft | 431 kts | 273° |
| 2026-05-08 07:56 | 42.54432 | -3.73346 | 32948 ft | 432 kts | 273° |
| 2026-05-08 07:57 | 42.55259 | -3.81415 | 32943 ft | 432 kts | 273° |
| 2026-05-08 07:57 | 42.56080 | -3.89495 | 32945 ft | 433 kts | 273° |
| 2026-05-08 07:58 | 42.56901 | -3.97595 | 32944 ft | 434 kts | 273° |
| 2026-05-08 07:58 | 42.57712 | -4.05705 | 32944 ft | 434 kts | 273° |
| 2026-05-08 07:59 | 42.58516 | -4.13832 | 32941 ft | 435 kts | 273° |
| 2026-05-08 07:59 | 42.59315 | -4.21921 | 32944 ft | 436 kts | 273° |
| 2026-05-08 08:00 | 42.60113 | -4.30076 | 32947 ft | 436 kts | 272° |
| 2026-05-08 08:00 | 42.60906 | -4.38238 | 32944 ft | 437 kts | 272° |
| 2026-05-08 08:01 | 42.61697 | -4.46417 | 32950 ft | 437 kts | 272° |
| 2026-05-08 08:01 | 42.62481 | -4.54598 | 32945 ft | 438 kts | 272° |
| 2026-05-08 08:02 | 42.63256 | -4.62805 | 32941 ft | 438 kts | 272° |
| 2026-05-08 08:02 | 42.64036 | -4.71022 | 32938 ft | 439 kts | 272° |
| 2026-05-08 08:03 | 42.64806 | -4.79244 | 32938 ft | 439 kts | 272° |
| 2026-05-08 08:03 | 42.65570 | -4.87476 | 32937 ft | 440 kts | 272° |
| 2026-05-08 08:04 | 42.66321 | -4.95661 | 32930 ft | 440 kts | 272° |
| 2026-05-08 08:04 | 42.67068 | -5.03918 | 32925 ft | 441 kts | 272° |
| 2026-05-08 08:05 | 42.67817 | -5.12191 | 32917 ft | 441 kts | 272° |
| 2026-05-08 08:05 | 42.68555 | -5.20469 | 32916 ft | 442 kts | 272° |
| 2026-05-08 08:06 | 42.69284 | -5.28770 | 32922 ft | 442 kts | 271° |
| 2026-05-08 08:06 | 42.70007 | -5.37080 | 32921 ft | 443 kts | 271° |
| 2026-05-08 08:07 | 42.70736 | -5.45403 | 32921 ft | 444 kts | 271° |
| 2026-05-08 08:07 | 42.71462 | -5.53736 | 32922 ft | 444 kts | 271° |
| 2026-05-08 08:08 | 42.72184 | -5.62079 | 32924 ft | 445 kts | 271° |
| 2026-05-08 08:08 | 42.72901 | -5.70438 | 32924 ft | 445 kts | 271° |
| 2026-05-08 08:09 | 42.73616 | -5.78803 | 32922 ft | 445 kts | 271° |
| 2026-05-08 08:09 | 42.74316 | -5.87178 | 32918 ft | 446 kts | 271° |
| 2026-05-08 08:10 | 42.75014 | -5.95568 | 32918 ft | 447 kts | 271° |
| 2026-05-08 08:10 | 42.75707 | -6.03971 | 32924 ft | 448 kts | 271° |
| 2026-05-08 08:11 | 42.76384 | -6.12332 | 32916 ft | 448 kts | 271° |
| 2026-05-08 08:11 | 42.77065 | -6.20758 | 32914 ft | 448 kts | 271° |
| 2026-05-08 08:12 | 42.77735 | -6.29192 | 32907 ft | 448 kts | 271° |
| 2026-05-08 08:12 | 42.78398 | -6.37627 | 32904 ft | 449 kts | 271° |
| 2026-05-08 08:13 | 42.79066 | -6.46044 | 32385 ft | 444 kts | 271° |
| 2026-05-08 08:13 | 42.79391 | -6.50214 | 31780 ft | 441 kts | 271° |
| 2026-05-08 08:13 | 42.79708 | -6.54344 | 31231 ft | 437 kts | 271° |
| 2026-05-08 08:13 | 42.80024 | -6.58449 | 30681 ft | 435 kts | 271° |
| 2026-05-08 08:14 | 42.80340 | -6.62529 | 30134 ft | 433 kts | 271° |
| 2026-05-08 08:14 | 42.80653 | -6.66598 | 29534 ft | 430 kts | 271° |
| 2026-05-08 08:14 | 42.80960 | -6.70625 | 29023 ft | 425 kts | 271° |
| 2026-05-08 08:14 | 42.81262 | -6.74604 | 28503 ft | 420 kts | 271° |
| 2026-05-08 08:15 | 42.81559 | -6.78534 | 28019 ft | 415 kts | 271° |
| 2026-05-08 08:15 | 42.81850 | -6.82427 | 27537 ft | 411 kts | 271° |
| 2026-05-08 08:15 | 42.82135 | -6.86273 | 27078 ft | 406 kts | 271° |
| 2026-05-08 08:15 | 42.82417 | -6.90084 | 26621 ft | 402 kts | 271° |
| 2026-05-08 08:16 | 42.82694 | -6.93808 | 26185 ft | 399 kts | 272° |
| 2026-05-08 08:16 | 42.82969 | -6.97556 | 25738 ft | 396 kts | 272° |
| 2026-05-08 08:16 | 42.83240 | -7.01266 | 25276 ft | 392 kts | 272° |
| 2026-05-08 08:16 | 42.83512 | -7.04946 | 24816 ft | 389 kts | 272° |
| 2026-05-08 08:17 | 42.83781 | -7.08603 | 24335 ft | 387 kts | 272° |
| 2026-05-08 08:17 | 42.84045 | -7.12231 | 23858 ft | 384 kts | 272° |
| 2026-05-08 08:17 | 42.84307 | -7.15840 | 23342 ft | 382 kts | 272° |
| 2026-05-08 08:17 | 42.84565 | -7.19431 | 22802 ft | 379 kts | 272° |
| 2026-05-08 08:18 | 42.84818 | -7.22979 | 22295 ft | 374 kts | 272° |
| 2026-05-08 08:18 | 42.85134 | -7.26478 | 21793 ft | 371 kts | 278° |
| 2026-05-08 08:18 | 42.85884 | -7.29844 | 21289 ft | 372 kts | 290° |
| 2026-05-08 08:18 | 42.87115 | -7.32950 | 20775 ft | 374 kts | 302° |
| 2026-05-08 08:19 | 42.88660 | -7.35794 | 20254 ft | 373 kts | 304° |
| 2026-05-08 08:19 | 42.90190 | -7.38583 | 19755 ft | 372 kts | 304° |
| 2026-05-08 08:19 | 42.91733 | -7.41406 | 19229 ft | 371 kts | 304° |
| 2026-05-08 08:19 | 42.93270 | -7.44231 | 18719 ft | 370 kts | 304° |
| 2026-05-08 08:20 | 42.94802 | -7.47049 | 18200 ft | 370 kts | 304° |
| 2026-05-08 08:20 | 42.96335 | -7.49868 | 17631 ft | 369 kts | 304° |
| 2026-05-08 08:20 | 42.97856 | -7.52669 | 17109 ft | 366 kts | 304° |
| 2026-05-08 08:20 | 42.99365 | -7.55452 | 16597 ft | 364 kts | 304° |
| 2026-05-08 08:21 | 43.00863 | -7.58224 | 16079 ft | 362 kts | 304° |
| 2026-05-08 08:21 | 43.02353 | -7.60986 | 15572 ft | 360 kts | 304° |
| 2026-05-08 08:21 | 43.03837 | -7.63737 | 15057 ft | 359 kts | 304° |
| 2026-05-08 08:21 | 43.05299 | -7.66444 | 14878 ft | 348 kts | 304° |
| 2026-05-08 08:22 | 43.06709 | -7.69049 | 14523 ft | 335 kts | 304° |
| 2026-05-08 08:22 | 43.08089 | -7.71598 | 13834 ft | 331 kts | 304° |
| 2026-05-08 08:22 | 43.09449 | -7.74119 | 13126 ft | 327 kts | 304° |
| 2026-05-08 08:22 | 43.10775 | -7.76579 | 12640 ft | 315 kts | 304° |
| 2026-05-08 08:23 | 43.12051 | -7.78950 | 12198 ft | 304 kts | 303° |
| 2026-05-08 08:23 | 43.13286 | -7.81250 | 11780 ft | 299 kts | 303° |
| 2026-05-08 08:23 | 43.14519 | -7.83552 | 11350 ft | 301 kts | 303° |
| 2026-05-08 08:23 | 43.15759 | -7.85872 | 10921 ft | 303 kts | 303° |
| 2026-05-08 08:24 | 43.17008 | -7.88208 | 10484 ft | 305 kts | 302° |
| 2026-05-08 08:24 | 43.18262 | -7.90553 | 10040 ft | 306 kts | 302° |
| 2026-05-08 08:24 | 43.19505 | -7.92877 | 9582 ft | 296 kts | 302° |
| 2026-05-08 08:24 | 43.20701 | -7.95106 | 9146 ft | 284 kts | 302° |
| 2026-05-08 08:25 | 43.21863 | -7.97269 | 8740 ft | 282 kts | 302° |
| 2026-05-08 08:25 | 43.23025 | -7.99443 | 8317 ft | 283 kts | 302° |
| 2026-05-08 08:25 | 43.24176 | -8.01604 | 7909 ft | 285 kts | 302° |
| 2026-05-08 08:25 | 43.25349 | -8.03811 | 7488 ft | 287 kts | 302° |
| 2026-05-08 08:26 | 43.26522 | -8.06016 | 7160 ft | 284 kts | 302° |
| 2026-05-08 08:26 | 43.27680 | -8.08184 | 6650 ft | 276 kts | 303° |
| 2026-05-08 08:26 | 43.28793 | -8.10263 | 6242 ft | 264 kts | 302° |
| 2026-05-08 08:26 | 43.29857 | -8.12253 | 5831 ft | 253 kts | 303° |
| 2026-05-08 08:27 | 43.31099 | -8.13990 | 5585 ft | 268 kts | 327° |
| 2026-05-08 08:27 | 43.32933 | -8.14599 | 5339 ft | 279 kts | 3° |
| 2026-05-08 08:27 | 43.34818 | -8.13920 | 5112 ft | 282 kts | 19° |
| 2026-05-08 08:27 | 43.36675 | -8.13063 | 4960 ft | 282 kts | 15° |
| 2026-05-08 08:28 | 43.38593 | -8.12500 | 4756 ft | 280 kts | 6° |
| 2026-05-08 08:28 | 43.40441 | -8.12396 | 4527 ft | 278 kts | 355° |
| 2026-05-08 08:28 | 43.42416 | -8.12754 | 4278 ft | 276 kts | 346° |
| 2026-05-08 08:28 | 43.44221 | -8.13487 | 4042 ft | 272 kts | 337° |
| 2026-05-08 08:29 | 43.45940 | -8.14554 | 3829 ft | 271 kts | 329° |
| 2026-05-08 08:29 | 43.47502 | -8.15916 | 3684 ft | 259 kts | 320° |
| 2026-05-08 08:29 | 43.48584 | -8.17770 | 3590 ft | 243 kts | 290° |
| 2026-05-08 08:29 | 43.48873 | -8.19950 | 3506 ft | 224 kts | 263° |
| 2026-05-08 08:30 | 43.48464 | -8.21927 | 3389 ft | 210 kts | 239° |
| 2026-05-08 08:30 | 43.47549 | -8.23403 | 3281 ft | 198 kts | 216° |
| 2026-05-08 08:30 | 43.45338 | -8.25264 | 3077 ft | 176 kts | 210° |
| 2026-05-08 08:31 | 43.44282 | -8.26134 | 2995 ft | 177 kts | 210° |
| 2026-05-08 08:31 | 43.43225 | -8.27006 | 2987 ft | 178 kts | 210° |
| 2026-05-08 08:31 | 43.42185 | -8.27863 | 2849 ft | 167 kts | 210° |
| 2026-05-08 08:31 | 43.41215 | -8.28664 | 2666 ft | 160 kts | 210° |
| 2026-05-08 08:32 | 43.40265 | -8.29448 | 2455 ft | 158 kts | 210° |
| 2026-05-08 08:32 | 43.39323 | -8.30224 | 2246 ft | 159 kts | 210° |
| 2026-05-08 08:32 | 43.38378 | -8.31002 | 2015 ft | 157 kts | 211° |
| 2026-05-08 08:32 | 43.37441 | -8.31774 | 1814 ft | 158 kts | 211° |
| 2026-05-08 08:33 | 43.36499 | -8.32550 | 1604 ft | 158 kts | 211° |
| 2026-05-08 08:33 | 43.35549 | -8.33331 | 1385 ft | 158 kts | 210° |
| 2026-05-08 08:33 | 43.34698 | -8.34026 | 1201 ft | 142 kts | 208° |
| 2026-05-08 08:33 | 43.33862 | -8.34727 | 1016 ft | 139 kts | 212° |
| 2026-05-08 08:34 | 43.33047 | -8.35434 | 818 ft | 138 kts | 208° |
| 2026-05-08 08:34 | 43.32230 | -8.36069 | 654 ft | 137 kts | 210° |
| 2026-05-08 08:34 | 43.31412 | -8.36743 | 446 ft | 137 kts | 206° |
| 2026-05-08 08:34 | 43.30596 | -8.37405 | 363 ft | 133 kts | 209° |
| 2026-05-08 08:35 | 43.29902 | -8.37963 | 344 ft | 87 kts | 211° |
| 2026-05-08 08:35 | 43.29575 | -8.38231 | 337 ft | 38 kts | 211° |
| 2026-05-08 08:35 | 43.29351 | -8.38415 | 336 ft | 38 kts | 209° |
| 2026-05-08 08:35 | 43.29245 | -8.38567 | 339 ft | 12 kts | 236° |
| 2026-05-08 08:36 | 43.29201 | -8.38553 | 339 ft | 11 kts | 66° |
| 2026-05-08 08:36 | 43.29276 | -8.38479 | 337 ft | 16 kts | 32° |
| 2026-05-08 08:36 | 43.29392 | -8.38383 | 336 ft | 23 kts | 30° |
| 2026-05-08 08:36 | 43.29545 | -8.38262 | 335 ft | 28 kts | 31° |
| 2026-05-08 08:37 | 43.29694 | -8.38142 | 337 ft | 23 kts | 30° |
| 2026-05-08 08:37 | 43.29829 | -8.38032 | 345 ft | 16 kts | 31° |
| 2026-05-08 08:37 | 43.29915 | -8.37980 | 352 ft | 10 kts | 359° |
| 2026-05-08 08:37 | 43.29980 | -8.38059 | 336 ft | 16 kts | 324° |
| 2026-05-08 08:38 | 43.30051 | -8.38077 | 341 ft | 13 kts | 4° |
| 2026-05-08 08:38 | 43.30102 | -8.38058 | 338 ft | 4 kts | 24° |
| 2026-05-08 08:38 | 43.30129 | -8.38036 | 338 ft | 1 kts | 32° |
| 2026-05-08 08:38 | 43.30138 | -8.38028 | 339 ft | 0 kts | 32° |
| 2026-05-08 08:39 | 43.30141 | -8.38026 | 339 ft | 2 kts | 32° |
| 2026-05-08 08:39 | 43.30159 | -8.38010 | 338 ft | 5 kts | 32° |
| 2026-05-08 08:39 | 43.30195 | -8.37979 | 338 ft | 8 kts | 32° |
| 2026-05-08 08:39 | 43.30229 | -8.37974 | 338 ft | 5 kts | 317° |
| 2026-05-08 08:40 | 43.30241 | -8.37997 | 339 ft | 1 kts | 306° |
| 2026-05-08 08:40 | 43.30247 | -8.38011 | 341 ft | 2 kts | 301° |
| 2026-05-08 08:40 | 43.30248 | -8.38013 | 341 ft | 0 kts | 301° |